createdAt,value
2023-05-07T00:00:27.169Z,100.00
2023-05-07T00:02:54.924Z,100.00
2023-05-07T00:05:22.767Z,100.00
2023-05-07T00:07:51.250Z,100.00
2023-05-07T00:10:18.794Z,100.00
2023-05-07T00:12:47.818Z,100.00
2023-05-07T00:15:15.537Z,100.00
2023-05-07T00:17:43.214Z,100.00
2023-05-07T00:20:11.665Z,100.00
2023-05-07T00:22:39.492Z,100.00
2023-05-07T00:25:08.164Z,100.00
2023-05-07T00:27:35.778Z,100.00
2023-05-07T00:30:05.161Z,100.00
2023-05-07T00:32:32.806Z,100.00
2023-05-07T00:35:00.430Z,100.00
2023-05-07T00:37:28.042Z,100.00
2023-05-07T00:39:56.450Z,100.00
2023-05-07T00:42:25.090Z,100.00
2023-05-07T00:44:52.816Z,100.00
2023-05-07T00:47:22.140Z,100.00
2023-05-07T00:49:49.803Z,100.00
2023-05-07T00:52:18.518Z,100.00
2023-05-07T00:54:46.538Z,100.00
2023-05-07T00:57:14.591Z,100.00
2023-05-07T00:59:42.616Z,100.00
2023-05-07T01:02:10.425Z,100.00
2023-05-07T01:04:39.462Z,100.00
2023-05-07T01:07:07.837Z,100.00
2023-05-07T01:09:36.992Z,100.00
2023-05-07T01:12:05.527Z,100.00
2023-05-07T01:14:34.075Z,100.00
2023-05-07T01:17:02.004Z,100.00
2023-05-07T01:19:31.271Z,100.00
2023-05-07T01:22:07.413Z,100.00
2023-05-07T01:24:37.785Z,100.00
2023-05-07T01:27:05.739Z,100.00
2023-05-07T01:29:33.395Z,100.00
2023-05-07T01:32:02.498Z,100.00
2023-05-07T01:34:32.622Z,100.00
2023-05-07T01:37:01.307Z,100.00
2023-05-07T01:39:31.240Z,100.00
2023-05-07T01:42:01.573Z,100.00
2023-05-07T01:44:29.449Z,100.00
2023-05-07T01:46:57.109Z,100.00
2023-05-07T01:49:24.855Z,100.00
2023-05-07T01:51:52.526Z,100.00
2023-05-07T01:54:21.828Z,100.00
2023-05-07T01:56:49.985Z,100.00
2023-05-07T01:59:18.944Z,100.00
2023-05-07T02:01:46.598Z,100.00
2023-05-07T02:04:14.291Z,100.00
2023-05-07T02:06:41.894Z,100.00
2023-05-07T02:09:10.140Z,100.00
2023-05-07T02:11:37.767Z,100.00
2023-05-07T02:14:05.463Z,100.00
2023-05-07T02:16:34.512Z,100.00
2023-05-07T02:19:02.155Z,100.00
2023-05-07T02:21:31.092Z,100.00
2023-05-07T02:23:58.948Z,100.00
2023-05-07T02:26:26.961Z,100.00
2023-05-07T02:28:54.792Z,100.00
2023-05-07T02:31:22.429Z,100.00
2023-05-07T02:33:51.398Z,100.00
2023-05-07T02:36:19.002Z,100.00
2023-05-07T02:38:46.610Z,100.00
2023-05-07T02:41:14.217Z,100.00
2023-05-07T02:43:41.817Z,100.00
2023-05-07T02:46:10.881Z,100.00
2023-05-07T02:48:38.697Z,100.00
2023-05-07T02:51:07.717Z,100.00
2023-05-07T02:53:35.519Z,100.00
2023-05-07T02:56:03.697Z,100.00
2023-05-07T02:58:31.383Z,100.00
2023-05-07T03:00:59.956Z,100.00
2023-05-07T03:03:27.691Z,100.00
2023-05-07T03:05:55.316Z,100.00
2023-05-07T03:08:24.414Z,100.00
2023-05-07T03:10:52.093Z,100.00
2023-05-07T03:13:20.962Z,100.00
2023-05-07T03:15:48.748Z,100.00
2023-05-07T03:18:16.510Z,100.00
2023-05-07T03:20:44.268Z,100.00
2023-05-07T03:23:11.899Z,100.00
2023-05-07T03:25:40.897Z,100.00
2023-05-07T03:28:08.513Z,100.00
2023-05-07T03:30:36.300Z,100.00
2023-05-07T03:33:04.054Z,100.00
2023-05-07T03:35:31.666Z,100.00
2023-05-07T03:37:59.268Z,100.00
2023-05-07T03:40:26.856Z,100.00
2023-05-07T03:42:55.857Z,100.00
2023-05-07T03:45:23.446Z,100.00
2023-05-07T03:47:51.096Z,100.00
2023-05-07T03:50:18.858Z,100.00
2023-05-07T03:52:46.855Z,100.00
2023-05-07T03:55:14.688Z,100.00
2023-05-07T03:57:42.325Z,100.00
2023-05-07T04:00:13.057Z,100.00
2023-05-07T04:02:41.033Z,100.00
2023-05-07T04:05:09.497Z,100.00
2023-05-07T04:07:37.107Z,100.00
2023-05-07T04:10:05.022Z,100.00
2023-05-07T04:12:32.638Z,100.00
2023-05-07T04:15:00.521Z,100.00
2023-05-07T04:17:29.797Z,100.00
2023-05-07T04:19:57.413Z,100.00
2023-05-07T04:22:25.018Z,100.00
2023-05-07T04:24:52.614Z,100.00
2023-05-07T04:27:20.218Z,100.00
2023-05-07T04:29:48.299Z,100.00
2023-05-07T04:32:16.025Z,100.00
2023-05-07T04:34:45.058Z,100.00
2023-05-07T04:37:12.693Z,100.00
2023-05-07T04:39:40.311Z,100.00
2023-05-07T04:42:09.772Z,100.00
2023-05-07T04:44:38.065Z,100.00
2023-05-07T04:47:05.816Z,100.00
2023-05-07T04:49:33.423Z,100.00
2023-05-07T04:52:02.381Z,100.00
2023-05-07T04:54:29.966Z,100.00
2023-05-07T04:56:57.576Z,100.00
2023-05-07T04:59:25.305Z,100.00
2023-05-07T05:01:52.971Z,100.00
2023-05-07T05:04:20.699Z,100.00
2023-05-07T05:06:48.343Z,100.00
2023-05-07T05:09:17.428Z,100.00
2023-05-07T05:11:45.091Z,100.00
2023-05-07T05:14:12.693Z,100.00
2023-05-07T05:16:40.472Z,100.00
2023-05-07T05:19:08.162Z,100.00
2023-05-07T05:21:35.768Z,100.00
2023-05-07T05:24:03.391Z,100.00
2023-05-07T05:26:32.351Z,100.00
2023-05-07T05:28:59.980Z,100.00
2023-05-07T05:31:27.743Z,100.00
2023-05-07T05:33:55.467Z,100.00
2023-05-07T05:36:23.202Z,100.00
2023-05-07T05:38:50.839Z,100.00
2023-05-07T05:41:18.454Z,100.00
2023-05-07T05:43:47.438Z,100.00
2023-05-07T05:46:15.067Z,100.00
2023-05-07T05:48:42.727Z,100.00
2023-05-07T05:51:10.322Z,100.00
2023-05-07T05:53:37.980Z,100.00
2023-05-07T05:56:06.302Z,100.00
2023-05-07T05:58:33.917Z,100.00
2023-05-07T06:01:03.636Z,100.00
2023-05-07T06:03:31.281Z,100.00
2023-05-07T06:05:58.917Z,100.00
2023-05-07T06:08:26.541Z,100.00
2023-05-07T06:10:54.285Z,100.00
2023-05-07T06:13:22.111Z,100.00
2023-05-07T06:15:49.738Z,100.00
2023-05-07T06:18:18.752Z,100.00
2023-05-07T06:20:46.486Z,100.00
2023-05-07T06:23:15.862Z,100.00
2023-05-07T06:25:51.368Z,100.00
2023-05-07T06:28:19.286Z,100.00
2023-05-07T06:30:46.952Z,100.00
2023-05-07T06:33:14.532Z,100.00
2023-05-07T06:35:43.781Z,100.00
2023-05-07T06:38:12.028Z,100.00
2023-05-07T06:40:39.666Z,100.00
2023-05-07T06:43:07.332Z,100.00
2023-05-07T06:45:34.954Z,100.00
2023-05-07T06:48:02.590Z,100.00
2023-05-07T06:50:30.211Z,100.00
2023-05-07T06:52:59.144Z,100.00
2023-05-07T06:55:26.876Z,100.00
2023-05-07T06:57:54.566Z,100.00
2023-05-07T07:00:22.361Z,100.00
2023-05-07T07:02:50.018Z,99.85
2023-05-07T07:05:17.840Z,100.00
2023-05-07T07:07:45.483Z,100.00
2023-05-07T07:10:14.485Z,99.36
2023-05-07T07:12:42.115Z,100.00
2023-05-07T07:15:10.401Z,94.42
2023-05-07T07:17:38.085Z,97.21
2023-05-07T07:20:07.745Z,96.87
2023-05-07T07:22:35.502Z,91.02
2023-05-07T07:25:03.127Z,91.04
2023-05-07T07:27:32.420Z,89.13
2023-05-07T07:30:00.009Z,89.66
2023-05-07T07:32:27.759Z,90.19
2023-05-07T07:34:55.397Z,83.79
2023-05-07T07:37:23.040Z,85.41
2023-05-07T07:39:50.651Z,77.41
2023-05-07T07:42:19.196Z,78.21
2023-05-07T07:44:48.187Z,76.79
2023-05-07T07:47:15.966Z,76.77
2023-05-07T07:49:43.628Z,72.02
2023-05-07T07:52:11.316Z,72.45
2023-05-07T07:54:39.019Z,69.94
2023-05-07T07:57:07.175Z,71.58
2023-05-07T07:59:34.745Z,72.20
2023-05-07T08:02:03.732Z,67.78
2023-05-07T08:04:31.529Z,69.24
2023-05-07T08:06:59.266Z,73.51
2023-05-07T08:09:26.855Z,67.14
2023-05-07T08:11:54.666Z,66.10
2023-05-07T08:14:22.433Z,65.73
2023-05-07T08:16:50.089Z,70.29
2023-05-07T08:19:19.054Z,72.01
2023-05-07T08:21:48.607Z,62.05
2023-05-07T08:24:16.424Z,62.94
2023-05-07T08:26:44.315Z,65.40
2023-05-07T08:29:11.969Z,59.92
2023-05-07T08:31:40.660Z,63.76
2023-05-07T08:34:09.788Z,60.94
2023-05-07T08:36:39.432Z,56.77
2023-05-07T08:39:07.410Z,53.51
2023-05-07T08:41:35.242Z,59.80
2023-05-07T08:44:05.388Z,56.30
2023-05-07T08:46:34.068Z,58.72
2023-05-07T08:49:01.830Z,60.47
2023-05-07T08:51:29.556Z,58.95
2023-05-07T08:53:58.628Z,57.16
2023-05-07T08:56:26.714Z,60.01
2023-05-07T08:58:57.574Z,55.79
2023-05-07T09:01:26.040Z,55.90
2023-05-07T09:03:54.254Z,58.12
2023-05-07T09:06:22.033Z,56.63
2023-05-07T09:08:53.725Z,53.65
2023-05-07T09:11:25.955Z,51.19
2023-05-07T09:13:56.512Z,53.89
2023-05-07T09:16:24.533Z,55.20
2023-05-07T09:18:54.032Z,54.33
2023-05-07T09:21:23.851Z,52.09
2023-05-07T09:23:52.778Z,54.64
2023-05-07T09:26:21.337Z,53.27
2023-05-07T09:28:50.332Z,53.25
2023-05-07T09:31:21.141Z,56.51
2023-05-07T09:33:49.374Z,55.26
2023-05-07T09:36:18.021Z,53.13
2023-05-07T09:38:45.772Z,54.19
2023-05-07T09:41:14.755Z,53.06
2023-05-07T09:43:42.593Z,51.23
2023-05-07T09:46:14.349Z,51.42
2023-05-07T09:48:42.382Z,53.82
2023-05-07T09:51:17.309Z,53.58
2023-05-07T09:53:46.971Z,50.93
2023-05-07T09:56:16.330Z,53.17
2023-05-07T09:58:44.422Z,51.64
2023-05-07T10:01:14.981Z,51.94
2023-05-07T10:03:44.309Z,53.47
2023-05-07T10:06:12.477Z,50.16
2023-05-07T10:08:40.171Z,50.65
2023-05-07T10:11:07.784Z,50.72
2023-05-07T10:13:38.199Z,46.93
2023-05-07T10:16:06.636Z,48.85
2023-05-07T10:18:36.254Z,50.39
2023-05-07T10:21:09.079Z,48.42
2023-05-07T10:23:36.868Z,49.13
2023-05-07T10:26:06.690Z,49.74
2023-05-07T10:28:38.454Z,45.88
2023-05-07T10:31:20.818Z,46.94
2023-05-07T10:33:52.191Z,50.18
2023-05-07T10:36:20.917Z,47.16
2023-05-07T10:38:48.586Z,45.85
2023-05-07T10:41:17.552Z,46.29
2023-05-07T10:43:46.595Z,46.46
2023-05-07T10:46:17.357Z,47.97
2023-05-07T10:49:14.088Z,46.82
2023-05-07T10:51:41.991Z,48.97
2023-05-07T10:54:22.927Z,48.09
2023-05-07T10:56:52.039Z,50.01
2023-05-07T10:59:41.699Z,43.23
2023-05-07T11:02:10.941Z,47.43
2023-05-07T11:04:40.089Z,47.93
2023-05-07T11:07:26.115Z,45.99
2023-05-07T11:10:02.652Z,47.64
2023-05-07T11:13:03.690Z,48.35
2023-05-07T11:15:49.615Z,45.37
2023-05-07T11:18:18.597Z,45.20
2023-05-07T11:20:52.418Z,46.56
2023-05-07T11:23:57.581Z,44.60
2023-05-07T11:26:26.322Z,46.63
2023-05-07T11:28:54.971Z,45.88
2023-05-07T11:31:27.279Z,47.98
2023-05-07T11:33:55.882Z,50.05
2023-05-07T11:36:27.062Z,46.30
2023-05-07T11:38:54.834Z,45.24
2023-05-07T11:41:23.010Z,49.89
2023-05-07T11:44:00.741Z,48.81
2023-05-07T11:46:29.757Z,47.26
2023-05-07T11:48:57.999Z,48.89
2023-05-07T11:51:30.928Z,49.05
2023-05-07T11:53:58.595Z,46.52
2023-05-07T11:56:26.353Z,44.53
2023-05-07T11:58:53.981Z,45.47
2023-05-07T12:01:21.621Z,50.82
2023-05-07T12:03:49.251Z,47.81
2023-05-07T12:06:18.142Z,47.48
2023-05-07T12:08:48.380Z,45.73
2023-05-07T12:11:18.958Z,45.98
2023-05-07T12:13:46.874Z,49.81
2023-05-07T12:16:14.730Z,47.41
2023-05-07T12:18:42.595Z,48.29
2023-05-07T12:21:10.854Z,45.85
2023-05-07T12:23:38.985Z,45.60
2023-05-07T12:26:08.109Z,51.42
2023-05-07T12:28:39.764Z,49.74
2023-05-07T12:31:08.134Z,51.25
2023-05-07T12:33:37.190Z,46.95
2023-05-07T12:36:07.720Z,50.12
2023-05-07T12:38:37.620Z,50.51
2023-05-07T12:41:05.695Z,45.43
2023-05-07T12:43:34.667Z,45.21
2023-05-07T12:46:03.915Z,46.60
2023-05-07T12:48:31.550Z,47.27
2023-05-07T12:51:01.214Z,46.27
2023-05-07T12:53:30.012Z,44.01
2023-05-07T12:55:59.212Z,49.77
2023-05-07T12:58:27.961Z,48.05
2023-05-07T13:01:00.444Z,48.80
2023-05-07T13:03:30.254Z,46.55
2023-05-07T13:05:59.431Z,46.81
2023-05-07T13:08:32.375Z,44.80
2023-05-07T13:11:04.105Z,48.36
2023-05-07T13:13:32.622Z,47.22
2023-05-07T13:16:02.383Z,47.67
2023-05-07T13:18:32.048Z,47.95
2023-05-07T13:21:00.399Z,47.29
2023-05-07T13:23:28.421Z,48.21
2023-05-07T13:25:56.880Z,48.29
2023-05-07T13:28:24.780Z,47.48
2023-05-07T13:30:52.895Z,48.20
2023-05-07T13:33:22.038Z,50.48
2023-05-07T13:35:49.700Z,47.28
2023-05-07T13:38:17.863Z,45.89
2023-05-07T13:40:45.494Z,47.22
2023-05-07T13:43:13.039Z,49.16
2023-05-07T13:45:40.670Z,46.40
2023-05-07T13:48:08.397Z,47.36
2023-05-07T13:50:37.414Z,48.87
2023-05-07T13:53:05.050Z,48.48
2023-05-07T13:55:32.686Z,49.21
2023-05-07T13:58:01.190Z,47.60
2023-05-07T14:00:30.085Z,46.05
2023-05-07T14:02:58.790Z,48.96
2023-05-07T14:05:27.622Z,46.43
2023-05-07T14:07:57.545Z,47.64
2023-05-07T14:10:25.494Z,46.94
2023-05-07T14:12:53.700Z,46.60
2023-05-07T14:15:21.343Z,46.38
2023-05-07T14:17:49.030Z,46.97
2023-05-07T14:20:16.658Z,46.89
2023-05-07T14:22:44.253Z,47.96
2023-05-07T14:25:13.945Z,45.79
2023-05-07T14:27:41.651Z,48.51
2023-05-07T14:30:10.165Z,46.93
2023-05-07T14:32:38.065Z,49.07
2023-05-07T14:35:06.368Z,47.52
2023-05-07T14:37:33.980Z,49.01
2023-05-07T14:40:01.560Z,49.15
2023-05-07T14:42:30.457Z,50.18
2023-05-07T14:44:58.068Z,50.07
2023-05-07T14:47:25.659Z,49.14
2023-05-07T14:49:54.068Z,49.35
2023-05-07T14:52:21.696Z,48.99
2023-05-07T14:54:49.299Z,48.92
2023-05-07T14:57:19.427Z,48.42
2023-05-07T14:59:48.844Z,50.81
2023-05-07T15:02:16.873Z,49.81
2023-05-07T15:04:47.495Z,48.65
2023-05-07T15:07:16.052Z,48.89
2023-05-07T15:09:43.845Z,50.79
2023-05-07T15:12:12.110Z,50.45
2023-05-07T15:14:39.664Z,50.33
2023-05-07T15:17:08.746Z,51.68
2023-05-07T15:19:36.469Z,52.65
2023-05-07T15:22:04.180Z,52.34
2023-05-07T15:24:32.287Z,53.29
2023-05-07T15:27:00.202Z,51.35
2023-05-07T15:29:27.756Z,53.52
2023-05-07T15:31:55.566Z,52.47
2023-05-07T15:34:25.032Z,53.32
2023-05-07T15:36:52.672Z,53.12
2023-05-07T15:39:20.870Z,54.93
2023-05-07T15:41:49.112Z,53.68
2023-05-07T15:44:16.701Z,53.79
2023-05-07T15:46:44.277Z,54.61
2023-05-07T15:49:11.907Z,52.17
2023-05-07T15:51:40.854Z,53.01
2023-05-07T15:54:08.440Z,53.48
2023-05-07T15:56:36.092Z,53.13
2023-05-07T15:59:04.010Z,53.89
2023-05-07T16:01:32.396Z,53.32
2023-05-07T16:04:00.087Z,53.44
2023-05-07T16:06:28.466Z,54.26
2023-05-07T16:08:57.407Z,53.74
2023-05-07T16:11:25.037Z,53.14
2023-05-07T16:13:52.581Z,53.56
2023-05-07T16:16:20.366Z,53.80
2023-05-07T16:18:48.141Z,53.42
2023-05-07T16:21:15.773Z,53.69
2023-05-07T16:23:43.369Z,52.56
2023-05-07T16:26:14.477Z,52.71
2023-05-07T16:28:42.113Z,52.87
2023-05-07T16:31:09.928Z,52.73
2023-05-07T16:33:37.592Z,52.37
2023-05-07T16:36:05.739Z,52.71
2023-05-07T16:38:34.279Z,54.81
2023-05-07T16:41:01.956Z,55.17
2023-05-07T16:43:31.280Z,55.98
2023-05-07T16:45:58.893Z,55.18
2023-05-07T16:48:27.170Z,55.26
2023-05-07T16:50:54.819Z,54.79
2023-05-07T16:53:22.383Z,56.21
2023-05-07T16:55:50.020Z,56.29
2023-05-07T16:58:17.665Z,56.58
2023-05-07T17:00:50.582Z,56.23
2023-05-07T17:03:19.312Z,55.31
2023-05-07T17:05:47.391Z,55.57
2023-05-07T17:08:15.159Z,56.26
2023-05-07T17:10:43.208Z,56.26
2023-05-07T17:13:10.891Z,56.55
2023-05-07T17:15:38.771Z,56.11
2023-05-07T17:18:08.087Z,56.00
2023-05-07T17:20:35.812Z,56.97
2023-05-07T17:23:03.385Z,56.25
2023-05-07T17:25:33.076Z,57.14
2023-05-07T17:28:00.720Z,57.50
2023-05-07T17:30:28.321Z,57.91
2023-05-07T17:33:03.828Z,58.24
2023-05-07T17:35:38.456Z,58.76
2023-05-07T17:38:06.080Z,59.19
2023-05-07T17:40:34.557Z,58.29
2023-05-07T17:43:02.701Z,56.92
2023-05-07T17:45:30.353Z,58.59
2023-05-07T17:47:58.010Z,58.14
2023-05-07T17:50:25.757Z,58.59
2023-05-07T17:52:55.001Z,57.96
2023-05-07T17:55:22.856Z,57.57
2023-05-07T17:57:50.517Z,58.52
2023-05-07T18:00:18.968Z,56.82
2023-05-07T18:02:46.626Z,58.42
2023-05-07T18:05:14.380Z,58.24
2023-05-07T18:07:41.984Z,57.62
2023-05-07T18:10:12.250Z,57.06
2023-05-07T18:12:40.986Z,56.85
2023-05-07T18:15:09.845Z,57.32
2023-05-07T18:17:37.694Z,57.22
2023-05-07T18:20:08.928Z,57.06
2023-05-07T18:22:36.956Z,57.45
2023-05-07T18:25:05.282Z,58.02
2023-05-07T18:27:34.248Z,57.20
2023-05-07T18:30:01.893Z,57.53
2023-05-07T18:32:29.537Z,57.29
2023-05-07T18:34:57.257Z,57.72
2023-05-07T18:37:26.799Z,58.32
2023-05-07T18:39:54.572Z,58.32
2023-05-07T18:42:22.182Z,58.98
2023-05-07T18:44:51.225Z,58.65
2023-05-07T18:47:18.861Z,58.69
2023-05-07T18:49:46.576Z,59.57
2023-05-07T18:52:16.324Z,59.29
2023-05-07T18:54:44.069Z,60.95
2023-05-07T18:57:11.725Z,61.37
2023-05-07T18:59:39.354Z,61.60
2023-05-07T19:02:08.607Z,61.06
2023-05-07T19:04:36.318Z,61.50
2023-05-07T19:07:03.976Z,61.64
2023-05-07T19:09:31.750Z,61.84
2023-05-07T19:11:59.610Z,62.26
2023-05-07T19:14:27.280Z,62.60
2023-05-07T19:16:54.868Z,63.26
2023-05-07T19:19:23.910Z,62.81
2023-05-07T19:21:51.627Z,63.45
2023-05-07T19:24:19.421Z,64.26
2023-05-07T19:26:47.023Z,63.38
2023-05-07T19:29:18.149Z,64.86
2023-05-07T19:31:46.595Z,65.16
2023-05-07T19:34:14.567Z,65.29
2023-05-07T19:36:43.713Z,66.40
2023-05-07T19:39:11.491Z,67.78
2023-05-07T19:41:39.289Z,67.62
2023-05-07T19:44:06.888Z,66.56
2023-05-07T19:46:34.558Z,67.19
2023-05-07T19:49:02.386Z,67.71
2023-05-07T19:51:32.445Z,68.59
2023-05-07T19:54:02.304Z,69.23
2023-05-07T19:56:29.970Z,69.47
2023-05-07T19:58:57.703Z,69.19
2023-05-07T20:01:25.344Z,70.21
2023-05-07T20:03:53.028Z,71.87
2023-05-07T20:06:23.298Z,71.59
2023-05-07T20:08:51.112Z,72.20
2023-05-07T20:11:21.581Z,72.65
2023-05-07T20:13:49.291Z,74.52
2023-05-07T20:16:17.012Z,75.24
2023-05-07T20:18:44.669Z,77.94
2023-05-07T20:21:22.076Z,78.92
2023-05-07T20:23:49.853Z,79.01
2023-05-07T20:26:17.498Z,82.97
2023-05-07T20:28:46.479Z,85.12
2023-05-07T20:31:14.181Z,84.30
2023-05-07T20:33:41.894Z,86.54
2023-05-07T20:36:09.694Z,86.53
2023-05-07T20:38:37.273Z,88.62
2023-05-07T20:41:08.683Z,88.92
2023-05-07T20:43:37.425Z,88.66
2023-05-07T20:46:07.899Z,91.83
2023-05-07T20:48:36.176Z,93.39
2023-05-07T20:51:04.247Z,93.88
2023-05-07T20:53:32.398Z,92.80
2023-05-07T20:56:00.490Z,97.41
2023-05-07T20:58:29.605Z,98.87
2023-05-07T21:00:57.628Z,97.14
2023-05-07T21:03:26.937Z,98.77
2023-05-07T21:05:55.721Z,99.28
2023-05-07T21:08:23.440Z,100.00
2023-05-07T21:10:51.634Z,100.00
2023-05-07T21:13:19.599Z,100.00
2023-05-07T21:15:47.513Z,100.00
2023-05-07T21:18:15.269Z,100.00
2023-05-07T21:20:44.460Z,100.00
2023-05-07T21:23:12.058Z,100.00
2023-05-07T21:25:41.329Z,100.00
2023-05-07T21:28:09.594Z,100.00
2023-05-07T21:30:37.313Z,100.00
2023-05-07T21:33:07.008Z,100.00
2023-05-07T21:35:36.224Z,100.00
2023-05-07T21:38:05.498Z,100.00
2023-05-07T21:40:33.126Z,100.00
2023-05-07T21:43:00.976Z,100.00
2023-05-07T21:45:28.633Z,100.00
2023-05-07T21:47:56.345Z,100.00
2023-05-07T21:50:24.134Z,100.00
2023-05-07T21:52:51.725Z,100.00
2023-05-07T21:55:21.068Z,100.00
2023-05-07T21:58:01.351Z,100.00
2023-05-07T22:00:33.165Z,100.00
2023-05-07T22:03:01.279Z,100.00
2023-05-07T22:05:29.104Z,100.00
2023-05-07T22:07:56.698Z,100.00
2023-05-07T22:10:25.708Z,100.00
2023-05-07T22:12:53.384Z,100.00
2023-05-07T22:15:21.387Z,100.00
2023-05-07T22:17:49.021Z,100.00
2023-05-07T22:20:16.743Z,100.00
2023-05-07T22:22:49.527Z,100.00
2023-05-07T22:25:20.077Z,100.00
2023-05-07T22:27:49.238Z,100.00
2023-05-07T22:30:16.938Z,100.00
2023-05-07T22:32:45.445Z,100.00
2023-05-07T22:35:13.160Z,100.00
2023-05-07T22:37:40.788Z,100.00
2023-05-07T22:40:09.430Z,100.00
2023-05-07T22:42:37.151Z,100.00
2023-05-07T22:45:07.130Z,100.00
2023-05-07T22:47:34.768Z,100.00
2023-05-07T22:50:02.382Z,100.00
2023-05-07T22:52:30.001Z,100.00
2023-05-07T22:54:57.601Z,100.00
2023-05-07T22:57:25.250Z,100.00
2023-05-07T22:59:54.832Z,100.00
2023-05-07T23:02:24.248Z,100.00
2023-05-07T23:04:51.919Z,100.00
2023-05-07T23:07:19.538Z,100.00
2023-05-07T23:09:47.145Z,100.00
2023-05-07T23:12:14.761Z,100.00
2023-05-07T23:14:42.330Z,100.00
2023-05-07T23:17:10.011Z,100.00
2023-05-07T23:19:39.031Z,100.00
2023-05-07T23:22:06.713Z,100.00
2023-05-07T23:24:34.869Z,100.00
2023-05-07T23:27:05.421Z,100.00
2023-05-07T23:29:33.126Z,100.00
2023-05-07T23:32:00.768Z,100.00
2023-05-07T23:34:28.626Z,100.00
2023-05-07T23:36:57.791Z,100.00
2023-05-07T23:39:25.414Z,100.00
2023-05-07T23:41:53.028Z,100.00
2023-05-07T23:44:20.613Z,100.00
2023-05-07T23:46:48.280Z,100.00
2023-05-07T23:49:15.914Z,100.00
2023-05-07T23:51:43.653Z,100.00
2023-05-07T23:54:12.585Z,100.00
2023-05-07T23:56:40.215Z,100.00
2023-05-07T23:59:08.552Z,100.00
